sensor_id;sensor_type;location;lat;lon;timestamp;P1;durP1;ratioP1;P2;durP2;ratioP2
73454;SDS011;61690;51.824;6.306;2022-07-31T00:00:35;6.13;;;3.13;;
73454;SDS011;61690;51.824;6.306;2022-07-31T00:03:01;6.33;;;3.07;;
73454;SDS011;61690;51.824;6.306;2022-07-31T00:05:26;6.97;;;3.15;;
73454;SDS011;61690;51.824;6.306;2022-07-31T00:07:52;5.17;;;3.00;;
73454;SDS011;61690;51.824;6.306;2022-07-31T00:10:18;7.10;;;3.10;;
73454;SDS011;61690;51.824;6.306;2022-07-31T00:12:44;7.80;;;3.10;;
73454;SDS011;61690;51.824;6.306;2022-07-31T00:15:09;6.53;;;2.83;;
73454;SDS011;61690;51.824;6.306;2022-07-31T00:17:36;7.53;;;3.38;;
73454;SDS011;61690;51.824;6.306;2022-07-31T00:20:02;5.53;;;3.08;;
73454;SDS011;61690;51.824;6.306;2022-07-31T00:22:28;6.10;;;3.15;;
73454;SDS011;61690;51.824;6.306;2022-07-31T00:24:54;7.70;;;3.20;;
73454;SDS011;61690;51.824;6.306;2022-07-31T00:27:20;6.55;;;2.90;;
73454;SDS011;61690;51.824;6.306;2022-07-31T00:29:45;5.67;;;2.70;;
73454;SDS011;61690;51.824;6.306;2022-07-31T00:32:11;7.07;;;3.20;;
73454;SDS011;61690;51.824;6.306;2022-07-31T00:34:36;6.27;;;3.13;;
73454;SDS011;61690;51.824;6.306;2022-07-31T00:37:01;6.57;;;3.00;;
73454;SDS011;61690;51.824;6.306;2022-07-31T00:39:27;6.87;;;3.30;;
73454;SDS011;61690;51.824;6.306;2022-07-31T00:41:52;5.30;;;2.77;;
73454;SDS011;61690;51.824;6.306;2022-07-31T00:44:19;5.95;;;3.00;;
73454;SDS011;61690;51.824;6.306;2022-07-31T00:46:45;7.30;;;3.10;;
73454;SDS011;61690;51.824;6.306;2022-07-31T00:49:10;6.88;;;2.90;;
73454;SDS011;61690;51.824;6.306;2022-07-31T00:51:36;7.37;;;3.10;;
73454;SDS011;61690;51.824;6.306;2022-07-31T00:54:03;6.90;;;2.90;;
73454;SDS011;61690;51.824;6.306;2022-07-31T00:56:28;6.05;;;3.10;;
73454;SDS011;61690;51.824;6.306;2022-07-31T00:58:53;6.00;;;3.43;;
73454;SDS011;61690;51.824;6.306;2022-07-31T01:01:19;5.97;;;2.90;;
73454;SDS011;61690;51.824;6.306;2022-07-31T01:03:46;6.25;;;3.20;;
73454;SDS011;61690;51.824;6.306;2022-07-31T01:06:11;5.80;;;3.13;;
73454;SDS011;61690;51.824;6.306;2022-07-31T01:08:37;6.70;;;3.20;;
73454;SDS011;61690;51.824;6.306;2022-07-31T01:11:05;7.20;;;3.13;;
73454;SDS011;61690;51.824;6.306;2022-07-31T01:13:34;6.78;;;3.65;;
73454;SDS011;61690;51.824;6.306;2022-07-31T01:16:03;5.95;;;2.78;;
73454;SDS011;61690;51.824;6.306;2022-07-31T01:18:32;7.07;;;3.33;;
73454;SDS011;61690;51.824;6.306;2022-07-31T01:21:01;7.43;;;2.97;;
73454;SDS011;61690;51.824;6.306;2022-07-31T01:29:18;5.72;;;2.90;;
73454;SDS011;61690;51.824;6.306;2022-07-31T01:37:33;6.75;;;3.60;;
73454;SDS011;61690;51.824;6.306;2022-07-31T01:40:07;6.93;;;3.50;;
73454;SDS011;61690;51.824;6.306;2022-07-31T01:42:36;7.20;;;3.40;;
73454;SDS011;61690;51.824;6.306;2022-07-31T01:45:05;5.80;;;3.58;;
73454;SDS011;61690;51.824;6.306;2022-07-31T01:47:44;6.43;;;3.80;;
73454;SDS011;61690;51.824;6.306;2022-07-31T01:50:11;6.38;;;3.67;;
73454;SDS011;61690;51.824;6.306;2022-07-31T01:52:37;6.55;;;4.00;;
73454;SDS011;61690;51.824;6.306;2022-07-31T01:55:04;6.30;;;3.55;;
73454;SDS011;61690;51.824;6.306;2022-07-31T01:57:33;7.25;;;4.30;;
73454;SDS011;61690;51.824;6.306;2022-07-31T02:00:03;6.33;;;3.63;;
73454;SDS011;61690;51.824;6.306;2022-07-31T02:02:31;8.13;;;3.63;;
73454;SDS011;61690;51.824;6.306;2022-07-31T02:04:58;7.57;;;3.40;;
73454;SDS011;61690;51.824;6.306;2022-07-31T02:07:26;6.93;;;3.83;;
73454;SDS011;61690;51.824;6.306;2022-07-31T02:09:53;6.78;;;3.67;;
73454;SDS011;61690;51.824;6.306;2022-07-31T02:12:20;7.10;;;3.70;;
73454;SDS011;61690;51.824;6.306;2022-07-31T02:14:46;6.57;;;3.35;;
73454;SDS011;61690;51.824;6.306;2022-07-31T02:17:12;6.40;;;3.50;;
73454;SDS011;61690;51.824;6.306;2022-07-31T02:19:39;7.05;;;3.80;;
73454;SDS011;61690;51.824;6.306;2022-07-31T02:22:05;7.57;;;3.10;;
73454;SDS011;61690;51.824;6.306;2022-07-31T02:24:32;5.87;;;3.50;;
73454;SDS011;61690;51.824;6.306;2022-07-31T02:26:58;6.28;;;3.80;;
73454;SDS011;61690;51.824;6.306;2022-07-31T02:29:24;6.10;;;3.55;;
73454;SDS011;61690;51.824;6.306;2022-07-31T02:31:52;6.40;;;3.35;;
73454;SDS011;61690;51.824;6.306;2022-07-31T02:34:19;6.55;;;3.40;;
73454;SDS011;61690;51.824;6.306;2022-07-31T02:36:48;8.20;;;3.17;;
73454;SDS011;61690;51.824;6.306;2022-07-31T02:39:14;7.05;;;3.60;;
73454;SDS011;61690;51.824;6.306;2022-07-31T02:41:41;6.95;;;3.47;;
73454;SDS011;61690;51.824;6.306;2022-07-31T02:44:09;7.90;;;3.67;;
73454;SDS011;61690;51.824;6.306;2022-07-31T02:46:35;6.93;;;3.67;;
73454;SDS011;61690;51.824;6.306;2022-07-31T02:49:01;6.00;;;3.63;;
73454;SDS011;61690;51.824;6.306;2022-07-31T02:51:26;6.60;;;3.73;;
73454;SDS011;61690;51.824;6.306;2022-07-31T02:53:52;6.15;;;3.20;;
73454;SDS011;61690;51.824;6.306;2022-07-31T02:56:18;6.57;;;3.90;;
73454;SDS011;61690;51.824;6.306;2022-07-31T02:58:44;7.57;;;3.70;;
73454;SDS011;61690;51.824;6.306;2022-07-31T03:01:10;8.20;;;3.53;;
73454;SDS011;61690;51.824;6.306;2022-07-31T03:03:35;8.30;;;4.00;;
73454;SDS011;61690;51.824;6.306;2022-07-31T03:06:01;7.00;;;3.80;;
73454;SDS011;61690;51.824;6.306;2022-07-31T03:08:26;6.83;;;3.73;;
73454;SDS011;61690;51.824;6.306;2022-07-31T03:10:52;6.38;;;3.20;;
73454;SDS011;61690;51.824;6.306;2022-07-31T03:13:18;7.23;;;3.70;;
73454;SDS011;61690;51.824;6.306;2022-07-31T03:15:46;6.00;;;3.42;;
73454;SDS011;61690;51.824;6.306;2022-07-31T03:18:12;7.38;;;3.70;;
73454;SDS011;61690;51.824;6.306;2022-07-31T03:20:43;7.22;;;3.90;;
73454;SDS011;61690;51.824;6.306;2022-07-31T03:23:10;5.75;;;3.03;;
73454;SDS011;61690;51.824;6.306;2022-07-31T03:25:37;7.10;;;3.27;;
73454;SDS011;61690;51.824;6.306;2022-07-31T03:28:03;6.35;;;3.22;;
73454;SDS011;61690;51.824;6.306;2022-07-31T03:30:28;6.60;;;3.70;;
73454;SDS011;61690;51.824;6.306;2022-07-31T03:32:54;7.72;;;3.80;;
73454;SDS011;61690;51.824;6.306;2022-07-31T03:35:20;7.10;;;3.50;;
73454;SDS011;61690;51.824;6.306;2022-07-31T03:37:46;7.00;;;3.50;;
73454;SDS011;61690;51.824;6.306;2022-07-31T03:40:12;6.77;;;3.40;;
73454;SDS011;61690;51.824;6.306;2022-07-31T03:42:38;6.57;;;3.53;;
73454;SDS011;61690;51.824;6.306;2022-07-31T03:45:04;6.53;;;3.38;;
73454;SDS011;61690;51.824;6.306;2022-07-31T03:47:31;6.72;;;3.20;;
73454;SDS011;61690;51.824;6.306;2022-07-31T03:49:57;7.77;;;3.20;;
73454;SDS011;61690;51.824;6.306;2022-07-31T03:52:25;7.47;;;3.72;;
73454;SDS011;61690;51.824;6.306;2022-07-31T03:54:51;7.28;;;3.70;;
73454;SDS011;61690;51.824;6.306;2022-07-31T03:57:17;6.40;;;3.77;;
73454;SDS011;61690;51.824;6.306;2022-07-31T03:59:43;6.95;;;4.20;;
73454;SDS011;61690;51.824;6.306;2022-07-31T04:02:10;8.30;;;4.50;;
73454;SDS011;61690;51.824;6.306;2022-07-31T04:04:36;8.40;;;4.70;;
73454;SDS011;61690;51.824;6.306;2022-07-31T04:07:05;8.52;;;5.28;;
73454;SDS011;61690;51.824;6.306;2022-07-31T04:09:31;8.65;;;4.72;;
73454;SDS011;61690;51.824;6.306;2022-07-31T04:11:56;7.87;;;5.03;;
73454;SDS011;61690;51.824;6.306;2022-07-31T04:14:22;8.30;;;5.50;;
73454;SDS011;61690;51.824;6.306;2022-07-31T04:16:47;10.63;;;5.13;;
73454;SDS011;61690;51.824;6.306;2022-07-31T04:19:13;8.63;;;5.00;;
73454;SDS011;61690;51.824;6.306;2022-07-31T04:21:38;10.63;;;5.63;;
73454;SDS011;61690;51.824;6.306;2022-07-31T04:24:03;7.93;;;5.37;;
73454;SDS011;61690;51.824;6.306;2022-07-31T04:26:29;7.75;;;5.30;;
73454;SDS011;61690;51.824;6.306;2022-07-31T04:28:54;12.73;;;7.27;;
73454;SDS011;61690;51.824;6.306;2022-07-31T04:31:20;10.27;;;6.57;;
73454;SDS011;61690;51.824;6.306;2022-07-31T04:33:45;10.73;;;7.23;;
73454;SDS011;61690;51.824;6.306;2022-07-31T04:36:10;12.85;;;7.72;;
73454;SDS011;61690;51.824;6.306;2022-07-31T04:38:36;11.17;;;7.23;;
73454;SDS011;61690;51.824;6.306;2022-07-31T04:41:01;11.03;;;7.67;;
73454;SDS011;61690;51.824;6.306;2022-07-31T04:43:26;12.33;;;8.00;;
73454;SDS011;61690;51.824;6.306;2022-07-31T04:45:52;15.20;;;8.73;;
73454;SDS011;61690;51.824;6.306;2022-07-31T04:48:17;13.43;;;8.63;;
73454;SDS011;61690;51.824;6.306;2022-07-31T04:50:42;11.60;;;7.57;;
73454;SDS011;61690;51.824;6.306;2022-07-31T04:53:08;9.88;;;7.55;;
73454;SDS011;61690;51.824;6.306;2022-07-31T04:55:33;13.23;;;7.57;;
73454;SDS011;61690;51.824;6.306;2022-07-31T04:57:58;10.97;;;6.87;;
73454;SDS011;61690;51.824;6.306;2022-07-31T05:00:24;12.30;;;7.47;;
73454;SDS011;61690;51.824;6.306;2022-07-31T05:02:50;12.35;;;7.95;;
73454;SDS011;61690;51.824;6.306;2022-07-31T05:05:16;12.07;;;7.03;;
73454;SDS011;61690;51.824;6.306;2022-07-31T05:07:42;12.18;;;7.60;;
73454;SDS011;61690;51.824;6.306;2022-07-31T05:10:08;11.70;;;7.53;;
73454;SDS011;61690;51.824;6.306;2022-07-31T05:12:34;10.20;;;7.47;;
73454;SDS011;61690;51.824;6.306;2022-07-31T05:14:59;11.45;;;7.38;;
73454;SDS011;61690;51.824;6.306;2022-07-31T05:17:24;12.00;;;7.43;;
73454;SDS011;61690;51.824;6.306;2022-07-31T05:19:51;11.02;;;7.47;;
73454;SDS011;61690;51.824;6.306;2022-07-31T05:22:17;10.37;;;6.83;;
73454;SDS011;61690;51.824;6.306;2022-07-31T05:24:42;11.43;;;7.37;;
73454;SDS011;61690;51.824;6.306;2022-07-31T05:27:07;9.47;;;6.63;;
73454;SDS011;61690;51.824;6.306;2022-07-31T05:29:33;12.63;;;6.60;;
73454;SDS011;61690;51.824;6.306;2022-07-31T05:31:58;10.02;;;6.40;;
73454;SDS011;61690;51.824;6.306;2022-07-31T05:34:24;10.67;;;6.53;;
73454;SDS011;61690;51.824;6.306;2022-07-31T05:36:49;12.57;;;6.70;;
73454;SDS011;61690;51.824;6.306;2022-07-31T05:39:15;10.50;;;7.27;;
73454;SDS011;61690;51.824;6.306;2022-07-31T05:41:41;10.75;;;6.85;;
73454;SDS011;61690;51.824;6.306;2022-07-31T05:44:07;14.20;;;8.00;;
73454;SDS011;61690;51.824;6.306;2022-07-31T05:46:32;11.83;;;8.67;;
73454;SDS011;61690;51.824;6.306;2022-07-31T05:48:58;12.73;;;7.87;;
73454;SDS011;61690;51.824;6.306;2022-07-31T05:51:23;15.43;;;9.43;;
73454;SDS011;61690;51.824;6.306;2022-07-31T05:53:48;11.30;;;8.70;;
73454;SDS011;61690;51.824;6.306;2022-07-31T05:56:14;14.77;;;10.40;;
73454;SDS011;61690;51.824;6.306;2022-07-31T05:58:39;12.70;;;8.93;;
73454;SDS011;61690;51.824;6.306;2022-07-31T06:01:04;15.47;;;10.37;;
73454;SDS011;61690;51.824;6.306;2022-07-31T06:03:30;14.77;;;10.70;;
73454;SDS011;61690;51.824;6.306;2022-07-31T06:06:00;15.57;;;9.30;;
73454;SDS011;61690;51.824;6.306;2022-07-31T06:08:26;13.60;;;9.07;;
73454;SDS011;61690;51.824;6.306;2022-07-31T06:10:53;13.60;;;9.13;;
73454;SDS011;61690;51.824;6.306;2022-07-31T06:13:22;18.83;;;10.30;;
73454;SDS011;61690;51.824;6.306;2022-07-31T06:15:47;16.60;;;11.13;;
73454;SDS011;61690;51.824;6.306;2022-07-31T06:18:13;16.50;;;11.00;;
73454;SDS011;61690;51.824;6.306;2022-07-31T06:20:39;15.77;;;12.20;;
73454;SDS011;61690;51.824;6.306;2022-07-31T06:23:04;15.52;;;10.90;;
73454;SDS011;61690;51.824;6.306;2022-07-31T06:25:30;16.70;;;12.17;;
73454;SDS011;61690;51.824;6.306;2022-07-31T06:27:55;16.50;;;11.90;;
73454;SDS011;61690;51.824;6.306;2022-07-31T06:30:20;16.37;;;10.73;;
73454;SDS011;61690;51.824;6.306;2022-07-31T06:32:46;17.53;;;12.10;;
73454;SDS011;61690;51.824;6.306;2022-07-31T06:35:11;17.87;;;12.33;;
73454;SDS011;61690;51.824;6.306;2022-07-31T06:37:36;18.93;;;11.60;;
73454;SDS011;61690;51.824;6.306;2022-07-31T06:40:02;17.90;;;11.63;;
73454;SDS011;61690;51.824;6.306;2022-07-31T06:42:27;18.13;;;11.27;;
73454;SDS011;61690;51.824;6.306;2022-07-31T06:44:53;17.50;;;10.80;;
73454;SDS011;61690;51.824;6.306;2022-07-31T06:47:19;16.55;;;10.85;;
73454;SDS011;61690;51.824;6.306;2022-07-31T06:49:47;17.33;;;11.30;;
73454;SDS011;61690;51.824;6.306;2022-07-31T06:52:12;15.03;;;9.73;;
73454;SDS011;61690;51.824;6.306;2022-07-31T06:54:37;14.20;;;9.50;;
73454;SDS011;61690;51.824;6.306;2022-07-31T06:57:03;16.97;;;10.20;;
73454;SDS011;61690;51.824;6.306;2022-07-31T06:59:28;12.77;;;8.23;;
73454;SDS011;61690;51.824;6.306;2022-07-31T07:01:54;18.37;;;9.13;;
73454;SDS011;61690;51.824;6.306;2022-07-31T07:04:19;16.50;;;9.67;;
73454;SDS011;61690;51.824;6.306;2022-07-31T07:06:45;14.47;;;9.40;;
73454;SDS011;61690;51.824;6.306;2022-07-31T07:09:10;15.75;;;8.77;;
73454;SDS011;61690;51.824;6.306;2022-07-31T07:11:35;14.47;;;8.90;;
73454;SDS011;61690;51.824;6.306;2022-07-31T07:14:01;13.30;;;7.70;;
73454;SDS011;61690;51.824;6.306;2022-07-31T07:16:26;12.13;;;7.80;;
73454;SDS011;61690;51.824;6.306;2022-07-31T07:18:51;10.60;;;7.63;;
73454;SDS011;61690;51.824;6.306;2022-07-31T07:21:17;12.07;;;7.72;;
73454;SDS011;61690;51.824;6.306;2022-07-31T07:23:42;13.23;;;6.43;;
73454;SDS011;61690;51.824;6.306;2022-07-31T07:26:07;11.90;;;6.63;;
73454;SDS011;61690;51.824;6.306;2022-07-31T07:28:33;11.30;;;6.53;;
73454;SDS011;61690;51.824;6.306;2022-07-31T07:30:59;12.48;;;6.50;;
73454;SDS011;61690;51.824;6.306;2022-07-31T07:33:24;9.47;;;5.77;;
73454;SDS011;61690;51.824;6.306;2022-07-31T07:35:50;14.03;;;5.83;;
73454;SDS011;61690;51.824;6.306;2022-07-31T07:38:15;11.53;;;6.30;;
73454;SDS011;61690;51.824;6.306;2022-07-31T07:40:40;11.07;;;6.27;;
73454;SDS011;61690;51.824;6.306;2022-07-31T07:43:06;10.13;;;5.82;;
73454;SDS011;61690;51.824;6.306;2022-07-31T07:45:32;12.20;;;6.77;;
73454;SDS011;61690;51.824;6.306;2022-07-31T07:47:57;10.90;;;6.00;;
73454;SDS011;61690;51.824;6.306;2022-07-31T07:50:23;9.40;;;5.60;;
73454;SDS011;61690;51.824;6.306;2022-07-31T07:52:48;9.18;;;6.25;;
73454;SDS011;61690;51.824;6.306;2022-07-31T07:55:13;13.97;;;6.43;;
73454;SDS011;61690;51.824;6.306;2022-07-31T07:57:39;12.13;;;6.90;;
73454;SDS011;61690;51.824;6.306;2022-07-31T08:00:09;10.82;;;6.15;;
73454;SDS011;61690;51.824;6.306;2022-07-31T08:02:36;11.38;;;6.40;;
73454;SDS011;61690;51.824;6.306;2022-07-31T08:05:01;11.33;;;6.20;;
73454;SDS011;61690;51.824;6.306;2022-07-31T08:07:30;8.70;;;5.37;;
73454;SDS011;61690;51.824;6.306;2022-07-31T08:09:57;11.27;;;6.10;;
73454;SDS011;61690;51.824;6.306;2022-07-31T08:12:23;9.70;;;5.97;;
73454;SDS011;61690;51.824;6.306;2022-07-31T08:14:48;9.17;;;6.10;;
73454;SDS011;61690;51.824;6.306;2022-07-31T08:17:14;9.48;;;5.78;;
73454;SDS011;61690;51.824;6.306;2022-07-31T08:19:39;9.33;;;4.87;;
73454;SDS011;61690;51.824;6.306;2022-07-31T08:22:06;8.63;;;5.05;;
73454;SDS011;61690;51.824;6.306;2022-07-31T08:24:31;9.77;;;5.57;;
73454;SDS011;61690;51.824;6.306;2022-07-31T08:26:57;10.43;;;5.70;;
73454;SDS011;61690;51.824;6.306;2022-07-31T08:29:40;11.32;;;5.43;;
73454;SDS011;61690;51.824;6.306;2022-07-31T08:32:06;12.53;;;6.00;;
73454;SDS011;61690;51.824;6.306;2022-07-31T08:34:31;13.13;;;6.20;;
73454;SDS011;61690;51.824;6.306;2022-07-31T08:36:56;14.70;;;6.40;;
73454;SDS011;61690;51.824;6.306;2022-07-31T08:39:23;12.60;;;6.63;;
73454;SDS011;61690;51.824;6.306;2022-07-31T08:41:48;16.23;;;6.33;;
73454;SDS011;61690;51.824;6.306;2022-07-31T08:44:14;12.65;;;6.20;;
73454;SDS011;61690;51.824;6.306;2022-07-31T08:46:39;11.20;;;6.30;;
73454;SDS011;61690;51.824;6.306;2022-07-31T08:49:05;14.30;;;5.87;;
73454;SDS011;61690;51.824;6.306;2022-07-31T08:51:34;12.80;;;7.32;;
73454;SDS011;61690;51.824;6.306;2022-07-31T08:54:01;12.45;;;7.20;;
73454;SDS011;61690;51.824;6.306;2022-07-31T08:56:32;12.55;;;6.85;;
73454;SDS011;61690;51.824;6.306;2022-07-31T08:59:07;11.40;;;7.00;;
73454;SDS011;61690;51.824;6.306;2022-07-31T09:01:33;11.38;;;7.18;;
73454;SDS011;61690;51.824;6.306;2022-07-31T09:04:00;11.35;;;7.03;;
73454;SDS011;61690;51.824;6.306;2022-07-31T09:06:26;14.23;;;7.37;;
73454;SDS011;61690;51.824;6.306;2022-07-31T09:08:51;13.25;;;8.30;;
73454;SDS011;61690;51.824;6.306;2022-07-31T09:11:19;13.67;;;8.60;;
73454;SDS011;61690;51.824;6.306;2022-07-31T09:14:24;13.50;;;8.52;;
73454;SDS011;61690;51.824;6.306;2022-07-31T09:16:45;17.42;;;10.00;;
73454;SDS011;61690;51.824;6.306;2022-07-31T09:19:11;15.93;;;10.15;;
73454;SDS011;61690;51.824;6.306;2022-07-31T09:21:42;15.17;;;9.90;;
73454;SDS011;61690;51.824;6.306;2022-07-31T09:24:09;17.15;;;9.80;;
73454;SDS011;61690;51.824;6.306;2022-07-31T09:26:36;15.80;;;10.10;;
73454;SDS011;61690;51.824;6.306;2022-07-31T09:29:04;14.15;;;9.45;;
73454;SDS011;61690;51.824;6.306;2022-07-31T09:31:35;11.73;;;7.75;;
73454;SDS011;61690;51.824;6.306;2022-07-31T09:34:02;13.90;;;8.33;;
73454;SDS011;61690;51.824;6.306;2022-07-31T09:36:28;14.65;;;9.00;;
73454;SDS011;61690;51.824;6.306;2022-07-31T09:38:53;13.90;;;9.17;;
73454;SDS011;61690;51.824;6.306;2022-07-31T09:41:20;13.63;;;8.38;;
73454;SDS011;61690;51.824;6.306;2022-07-31T09:43:57;13.98;;;8.93;;
73454;SDS011;61690;51.824;6.306;2022-07-31T09:46:43;11.63;;;7.40;;
73454;SDS011;61690;51.824;6.306;2022-07-31T09:49:10;14.02;;;8.30;;
73454;SDS011;61690;51.824;6.306;2022-07-31T09:51:37;10.80;;;6.97;;
73454;SDS011;61690;51.824;6.306;2022-07-31T09:54:03;11.93;;;7.43;;
73454;SDS011;61690;51.824;6.306;2022-07-31T09:56:29;10.73;;;7.50;;
73454;SDS011;61690;51.824;6.306;2022-07-31T09:58:59;10.45;;;6.97;;
73454;SDS011;61690;51.824;6.306;2022-07-31T10:01:25;11.32;;;7.07;;
73454;SDS011;61690;51.824;6.306;2022-07-31T10:03:51;10.50;;;6.50;;
73454;SDS011;61690;51.824;6.306;2022-07-31T10:06:19;11.30;;;6.60;;
73454;SDS011;61690;51.824;6.306;2022-07-31T10:08:46;9.10;;;6.60;;
73454;SDS011;61690;51.824;6.306;2022-07-31T10:11:13;10.27;;;7.10;;
73454;SDS011;61690;51.824;6.306;2022-07-31T10:13:43;10.68;;;6.78;;
73454;SDS011;61690;51.824;6.306;2022-07-31T10:16:10;11.63;;;7.13;;
73454;SDS011;61690;51.824;6.306;2022-07-31T10:18:37;13.40;;;7.00;;
73454;SDS011;61690;51.824;6.306;2022-07-31T10:21:05;11.15;;;7.00;;
73454;SDS011;61690;51.824;6.306;2022-07-31T10:23:33;10.27;;;7.15;;
73454;SDS011;61690;51.824;6.306;2022-07-31T10:26:03;11.63;;;7.37;;
73454;SDS011;61690;51.824;6.306;2022-07-31T10:28:28;11.57;;;7.50;;
73454;SDS011;61690;51.824;6.306;2022-07-31T10:30:54;11.43;;;7.40;;
73454;SDS011;61690;51.824;6.306;2022-07-31T10:33:20;11.48;;;7.10;;
73454;SDS011;61690;51.824;6.306;2022-07-31T10:35:52;10.10;;;6.43;;
73454;SDS011;61690;51.824;6.306;2022-07-31T10:38:35;11.45;;;6.70;;
73454;SDS011;61690;51.824;6.306;2022-07-31T10:41:16;11.70;;;6.82;;
73454;SDS011;61690;51.824;6.306;2022-07-31T10:44:04;8.38;;;4.97;;
73454;SDS011;61690;51.824;6.306;2022-07-31T10:46:35;9.82;;;6.70;;
73454;SDS011;61690;51.824;6.306;2022-07-31T10:49:01;11.20;;;7.20;;
73454;SDS011;61690;51.824;6.306;2022-07-31T10:51:26;11.23;;;7.03;;
73454;SDS011;61690;51.824;6.306;2022-07-31T10:53:59;8.47;;;5.67;;
73454;SDS011;61690;51.824;6.306;2022-07-31T10:56:26;10.82;;;6.70;;
73454;SDS011;61690;51.824;6.306;2022-07-31T10:58:52;11.57;;;6.68;;
73454;SDS011;61690;51.824;6.306;2022-07-31T11:01:21;11.55;;;6.65;;
73454;SDS011;61690;51.824;6.306;2022-07-31T11:03:51;10.45;;;6.85;;
73454;SDS011;61690;51.824;6.306;2022-07-31T11:06:18;14.03;;;6.53;;
73454;SDS011;61690;51.824;6.306;2022-07-31T11:08:49;8.75;;;6.47;;
73454;SDS011;61690;51.824;6.306;2022-07-31T11:11:29;10.43;;;6.03;;
73454;SDS011;61690;51.824;6.306;2022-07-31T11:13:56;10.20;;;5.53;;
73454;SDS011;61690;51.824;6.306;2022-07-31T11:16:24;10.82;;;6.10;;
73454;SDS011;61690;51.824;6.306;2022-07-31T11:19:02;9.43;;;4.93;;
73454;SDS011;61690;51.824;6.306;2022-07-31T11:21:36;8.77;;;5.68;;
73454;SDS011;61690;51.824;6.306;2022-07-31T11:26:52;8.47;;;5.63;;
73454;SDS011;61690;51.824;6.306;2022-07-31T11:31:54;8.70;;;5.50;;
73454;SDS011;61690;51.824;6.306;2022-07-31T11:34:22;9.77;;;6.15;;
73454;SDS011;61690;51.824;6.306;2022-07-31T11:36:49;9.55;;;5.38;;
73454;SDS011;61690;51.824;6.306;2022-07-31T11:39:14;9.17;;;5.50;;
73454;SDS011;61690;51.824;6.306;2022-07-31T11:41:40;8.07;;;5.43;;
73454;SDS011;61690;51.824;6.306;2022-07-31T11:44:05;9.50;;;5.20;;
73454;SDS011;61690;51.824;6.306;2022-07-31T11:46:32;10.60;;;5.10;;
73454;SDS011;61690;51.824;6.306;2022-07-31T11:48:58;8.68;;;4.85;;
73454;SDS011;61690;51.824;6.306;2022-07-31T11:51:25;9.77;;;5.00;;
73454;SDS011;61690;51.824;6.306;2022-07-31T11:53:52;10.75;;;4.88;;
73454;SDS011;61690;51.824;6.306;2022-07-31T11:56:19;9.75;;;4.50;;
73454;SDS011;61690;51.824;6.306;2022-07-31T11:58:49;8.82;;;4.80;;
73454;SDS011;61690;51.824;6.306;2022-07-31T12:01:16;9.00;;;5.03;;
73454;SDS011;61690;51.824;6.306;2022-07-31T12:03:43;8.87;;;4.93;;
73454;SDS011;61690;51.824;6.306;2022-07-31T12:06:09;10.80;;;5.50;;
73454;SDS011;61690;51.824;6.306;2022-07-31T12:08:36;7.57;;;4.60;;
73454;SDS011;61690;51.824;6.306;2022-07-31T12:11:03;9.93;;;4.85;;
73454;SDS011;61690;51.824;6.306;2022-07-31T12:13:30;10.35;;;4.82;;
73454;SDS011;61690;51.824;6.306;2022-07-31T12:15:57;7.93;;;5.00;;
73454;SDS011;61690;51.824;6.306;2022-07-31T12:18:31;8.68;;;5.40;;
73454;SDS011;61690;51.824;6.306;2022-07-31T12:21:09;7.90;;;4.97;;
73454;SDS011;61690;51.824;6.306;2022-07-31T12:23:41;8.70;;;5.03;;
73454;SDS011;61690;51.824;6.306;2022-07-31T12:26:12;8.60;;;5.00;;
73454;SDS011;61690;51.824;6.306;2022-07-31T12:28:55;9.93;;;4.97;;
73454;SDS011;61690;51.824;6.306;2022-07-31T12:31:24;11.70;;;4.75;;
73454;SDS011;61690;51.824;6.306;2022-07-31T12:33:50;8.37;;;4.43;;
73454;SDS011;61690;51.824;6.306;2022-07-31T12:36:15;7.77;;;4.57;;
73454;SDS011;61690;51.824;6.306;2022-07-31T12:38:42;7.55;;;4.43;;
73454;SDS011;61690;51.824;6.306;2022-07-31T12:41:08;9.40;;;4.82;;
73454;SDS011;61690;51.824;6.306;2022-07-31T12:43:33;10.33;;;4.30;;
73454;SDS011;61690;51.824;6.306;2022-07-31T12:45:59;13.13;;;4.57;;
73454;SDS011;61690;51.824;6.306;2022-07-31T12:48:29;8.63;;;4.07;;
73454;SDS011;61690;51.824;6.306;2022-07-31T12:51:00;10.43;;;4.40;;
73454;SDS011;61690;51.824;6.306;2022-07-31T12:53:27;9.65;;;4.30;;
73454;SDS011;61690;51.824;6.306;2022-07-31T12:55:56;9.18;;;4.30;;
73454;SDS011;61690;51.824;6.306;2022-07-31T12:58:21;8.47;;;4.37;;
73454;SDS011;61690;51.824;6.306;2022-07-31T13:00:48;9.07;;;4.13;;
73454;SDS011;61690;51.824;6.306;2022-07-31T13:03:13;8.20;;;3.67;;
73454;SDS011;61690;51.824;6.306;2022-07-31T13:05:38;6.65;;;4.00;;
73454;SDS011;61690;51.824;6.306;2022-07-31T13:08:04;9.30;;;3.40;;
73454;SDS011;61690;51.824;6.306;2022-07-31T13:10:31;7.05;;;4.07;;
73454;SDS011;61690;51.824;6.306;2022-07-31T13:12:56;7.83;;;4.00;;
73454;SDS011;61690;51.824;6.306;2022-07-31T13:15:22;8.17;;;3.80;;
73454;SDS011;61690;51.824;6.306;2022-07-31T13:17:53;6.75;;;3.95;;
73454;SDS011;61690;51.824;6.306;2022-07-31T13:20:22;9.57;;;4.18;;
73454;SDS011;61690;51.824;6.306;2022-07-31T13:26:09;10.07;;;4.00;;
73454;SDS011;61690;51.824;6.306;2022-07-31T13:35:17;8.70;;;4.37;;
73454;SDS011;61690;51.824;6.306;2022-07-31T13:37:45;8.07;;;4.13;;
73454;SDS011;61690;51.824;6.306;2022-07-31T13:40:11;8.55;;;4.32;;
73454;SDS011;61690;51.824;6.306;2022-07-31T13:42:37;7.70;;;4.70;;
73454;SDS011;61690;51.824;6.306;2022-07-31T13:45:02;8.47;;;4.90;;
73454;SDS011;61690;51.824;6.306;2022-07-31T13:47:28;7.37;;;4.40;;
73454;SDS011;61690;51.824;6.306;2022-07-31T13:49:53;7.83;;;4.57;;
73454;SDS011;61690;51.824;6.306;2022-07-31T13:52:18;7.60;;;4.73;;
73454;SDS011;61690;51.824;6.306;2022-07-31T13:54:44;7.33;;;4.37;;
73454;SDS011;61690;51.824;6.306;2022-07-31T13:57:09;7.33;;;4.40;;
73454;SDS011;61690;51.824;6.306;2022-07-31T13:59:34;6.63;;;4.00;;
73454;SDS011;61690;51.824;6.306;2022-07-31T14:02:00;9.87;;;5.10;;
73454;SDS011;61690;51.824;6.306;2022-07-31T14:04:25;10.17;;;4.73;;
73454;SDS011;61690;51.824;6.306;2022-07-31T14:06:50;7.87;;;4.90;;
73454;SDS011;61690;51.824;6.306;2022-07-31T14:09:16;8.18;;;4.97;;
73454;SDS011;61690;51.824;6.306;2022-07-31T14:11:41;9.50;;;4.87;;
73454;SDS011;61690;51.824;6.306;2022-07-31T14:14:06;6.93;;;4.20;;
73454;SDS011;61690;51.824;6.306;2022-07-31T14:16:32;10.37;;;4.70;;
73454;SDS011;61690;51.824;6.306;2022-07-31T14:18:57;7.90;;;5.03;;
73454;SDS011;61690;51.824;6.306;2022-07-31T14:21:23;8.43;;;4.80;;
73454;SDS011;61690;51.824;6.306;2022-07-31T14:23:48;8.50;;;5.20;;
73454;SDS011;61690;51.824;6.306;2022-07-31T14:26:13;9.70;;;4.70;;
73454;SDS011;61690;51.824;6.306;2022-07-31T14:28:39;7.60;;;4.60;;
73454;SDS011;61690;51.824;6.306;2022-07-31T14:31:04;8.87;;;5.53;;
73454;SDS011;61690;51.824;6.306;2022-07-31T14:33:30;8.43;;;5.55;;
73454;SDS011;61690;51.824;6.306;2022-07-31T14:35:55;9.20;;;5.43;;
73454;SDS011;61690;51.824;6.306;2022-07-31T14:38:20;8.30;;;4.43;;
73454;SDS011;61690;51.824;6.306;2022-07-31T14:40:46;8.50;;;5.17;;
73454;SDS011;61690;51.824;6.306;2022-07-31T14:43:12;10.23;;;4.97;;
73454;SDS011;61690;51.824;6.306;2022-07-31T14:45:38;9.20;;;5.20;;
73454;SDS011;61690;51.824;6.306;2022-07-31T14:48:03;8.53;;;5.20;;
73454;SDS011;61690;51.824;6.306;2022-07-31T14:50:29;9.07;;;5.05;;
73454;SDS011;61690;51.824;6.306;2022-07-31T14:52:54;9.00;;;4.87;;
73454;SDS011;61690;51.824;6.306;2022-07-31T14:55:20;7.68;;;4.90;;
73454;SDS011;61690;51.824;6.306;2022-07-31T14:57:47;7.75;;;5.32;;
73454;SDS011;61690;51.824;6.306;2022-07-31T15:00:13;8.80;;;5.27;;
73454;SDS011;61690;51.824;6.306;2022-07-31T15:02:40;8.23;;;4.80;;
73454;SDS011;61690;51.824;6.306;2022-07-31T15:05:06;9.13;;;5.30;;